Friday, November 28, 2014, 5:36 PM EST

KDOV, Dover Air Force Base

Location: Dover, DE, United States Lat: 39.133
Local Time: 5:36 PM EST (22:36 GMT) Lon: -75.467
Time Zone: US/Eastern Elev: 29 ft

Show me the last for .
Show Decoded

2014-11-28 16:58 METAR KDOV 282158Z AUTO 30009KT 10SM CLR 01/M10 A3024 RMK AO2 SLP244 T00131096 =
2014-11-28 15:58 METAR KDOV 282058Z AUTO 28014G18KT 10SM CLR 03/M09 A3023 RMK AO2 SLP240
                 T00291095 53009 =
2014-11-28 14:58 METAR KDOV 281958Z AUTO 32013KT 10SM CLR 04/M09 A3021 =
2014-11-28 13:58 METAR KDOV 281858Z AUTO 30016G21KT 10SM CLR 04/M09 A3021 =
2014-11-28 12:58 METAR KDOV 281758Z AUTO 29017G24KT 10SM SCT055 04/M08 A3020 =
2014-11-28 11:58 METAR KDOV 281658Z AUTO 31018G24KT 10SM CLR 04/M09 A3022 =
2014-11-28 10:58 METAR KDOV 281558Z AUTO 32017G26KT 10SM CLR 04/M07 A3023 =
2014-11-28 09:58 METAR KDOV 281458Z AUTO 31015G22KT 10SM CLR 03/M04 A3024 RMK AO2 SLP244
                 T00341039 52012 =
2014-11-28 08:58 METAR KDOV 281358Z AUTO 29012G17KT 10SM CLR 02/M04 A3023 =
2014-11-28 07:58 METAR KDOV 281258Z AUTO 27008KT 10SM CLR 00/M04 A3022 =
2014-11-28 06:58 METAR KDOV 281158Z AUTO 25005KT 10SM CLR M01/M05 A3020 RMK AO2 SLP230 T10101046
                 10017 21010 52021 =
2014-11-28 05:58 METAR KDOV 281058Z AUTO 27005KT 10SM CLR 00/M04 A3017 =
2014-11-28 04:58 METAR KDOV 280958Z AUTO 28008KT 10SM CLR 01/M04 A3016 =
2014-11-28 03:58 METAR KDOV 280858Z AUTO 29010KT 10SM SCT055 01/M02 A3014 RMK AO2 SLP210
                 T00131017 52010 =
2014-11-28 02:58 METAR KDOV 280758Z AUTO 28009KT 10SM FEW026 BKN060 01/M01 A3013 =
2014-11-28 01:58 METAR KDOV 280658Z AUTO 27009KT 10SM BKN055 OVC065 01/00 A3012 RMK AO2 SLP203
                 T00101005 =
2014-11-28 00:58 METAR KDOV 280558Z AUTO 24004KT 10SM CLR 00/M01 A3011 =
2014-11-27 23:58 METAR KDOV 280458Z AUTO 28005KT 10SM CLR 00/M01 A3011 =
2014-11-27 22:58 METAR KDOV 280358Z AUTO 27003KT 10SM CLR 00/M02 A3012 =
2014-11-27 21:58 METAR KDOV 280258Z AUTO 25004KT 10SM CLR 01/M02 A3010 =
2014-11-27 20:58 METAR KDOV 280158Z AUTO 30009KT 10SM OVC070 02/M02 A3010 =
2014-11-27 19:58 METAR KDOV 280058Z AUTO 30007KT 10SM CLR 01/M02 A3009 =
2014-11-27 18:58 METAR KDOV 272358Z AUTO 31008KT 10SM CLR 01/M02 A3008 =
2014-11-27 17:58 METAR KDOV 272258Z AUTO 29008KT 10SM CLR 03/M02 A3005 =

Support USWX by starting your Amazon purchase here.